Time;durP1;ratioP1;P1;durP2;ratioP2;P2;SDS_P1;SDS_P2;PMS_P1;PMS_P2;Temp;Humidity;BMP_temperature;BMP_pressure;BME280_temperature;BME280_humidity;BME280_pressure;Samples;Min_cycle;Max_cycle;Signal;HPM_P1;HPM_P2
2022/12/15 00:38:43;;;;;;;75.23;36.33;;;;;;;-141.97;89.41;47824.69;5035295;28;20435;-81
2022/12/15 00:41:15;;;;;;;80.30;38.00;;;;;;;-141.97;89.03;47811.25;5034823;28;20462;-80
2022/12/15 00:43:40;;;;;;;84.00;36.53;;;;;;;-141.97;89.32;47836.22;5035020;28;20405;-81
2022/12/15 00:48:50;;;;;;;76.53;36.13;;;;;;;-141.97;88.99;47778.56;5034980;28;20324;-80
2022/12/15 00:51:16;;;;;;;103.80;43.17;;;;;;;-141.97;89.53;47784.34;5035112;28;20443;-80
2022/12/15 01:21:09;;;;;;;75.57;33.43;;;;;;;-141.97;88.09;47847.75;5033429;28;20514;-81
2022/12/15 01:23:35;;;;;;;76.93;35.20;;;;;;;-141.97;88.02;47822.78;5033471;28;20921;-81
2022/12/15 01:26:01;;;;;;;72.87;33.20;;;;;;;-141.97;88.70;47830.47;5033919;28;20897;-81
2022/12/15 01:28:27;;;;;;;72.97;34.13;;;;;;;-141.97;88.30;47813.16;5034064;28;20448;-80
2022/12/15 01:30:52;;;;;;;77.83;33.83;;;;;;;-141.97;90.36;47861.22;5033422;28;20158;-80
2022/12/15 01:33:18;;;;;;;71.47;32.30;;;;;;;-141.97;91.10;47793.94;5033653;28;20223;-80
2022/12/15 01:35:44;;;;;;;79.10;35.83;;;;;;;-141.97;92.51;47834.31;5033826;28;20169;-80
2022/12/15 01:38:10;;;;;;;78.67;35.50;;;;;;;-141.97;92.93;47834.31;5033234;28;20469;-80
2022/12/15 01:40:45;;;;;;;81.13;34.23;;;;;;;-141.97;94.18;47790.09;5033384;28;20197;-80
2022/12/15 01:43:16;;;;;;;87.80;37.70;;;;;;;-141.97;95.14;47836.22;5033736;28;20165;-81
2022/12/15 01:46:01;;;;;;;85.47;36.70;;;;;;;-141.97;95.57;47834.31;5015498;28;20413;-80
2022/12/15 01:48:35;;;;;;;87.70;37.47;;;;;;;-141.97;95.78;47742.03;5033911;28;20829;-80
2022/12/15 01:51:18;;;;;;;86.63;36.00;;;;;;;-141.97;95.25;47830.47;5015748;28;20441;-80
2022/12/15 01:54:03;;;;;;;92.73;37.57;;;;;;;-141.97;95.57;47826.63;5033293;28;20408;-80
2022/12/15 01:56:32;;;;;;;101.23;42.90;;;;;;;-141.97;96.60;47830.47;5033146;28;20451;-80
2022/12/15 01:59:00;;;;;;;97.90;39.97;;;;;;;-141.97;96.06;47803.56;5033254;28;20940;-80
2022/12/15 02:01:26;;;;;;;104.20;42.23;;;;;;;-141.97;96.50;47807.41;5032639;28;20488;-80
2022/12/15 02:03:52;;;;;;;106.73;44.57;;;;;;;-141.97;97.18;47815.09;5032842;28;20980;-80
2022/12/15 02:06:20;;;;;;;102.43;41.10;;;;;;;-141.97;97.42;47834.31;5032781;28;20235;-80
2022/12/15 02:08:48;;;;;;;103.13;40.57;;;;;;;-141.97;97.47;47815.09;5032602;28;20158;-80
2022/12/15 02:11:51;;;;;;;105.03;41.93;;;;;;;-141.97;97.61;47830.47;5032750;28;20409;-81
2022/12/15 02:14:59;;;;;;;75.20;33.23;;;;;;;-141.97;97.58;47834.31;5032593;28;20397;-80
2022/12/15 02:18:00;;;;;;;88.73;34.97;;;;;;;-141.97;98.10;47824.69;4952277;29;20865;-80
2022/12/15 02:20:44;;;;;;;106.03;42.37;;;;;;;-141.97;97.33;47817.00;4952214;29;20499;-80
2022/12/15 02:23:44;;;;;;;87.73;36.80;;;;;;;-141.97;96.76;47828.53;4952808;29;20801;-80
2022/12/15 02:26:57;;;;;;;85.47;34.10;;;;;;;-141.97;96.67;47807.41;4952259;29;20867;-80
2022/12/15 02:30:02;;;;;;;93.63;36.80;;;;;;;-141.97;96.84;47828.53;4952382;29;20435;-80
2022/12/15 02:32:36;;;;;;;82.73;34.13;;;;;;;-141.97;96.06;47857.38;4935454;29;20408;-80
2022/12/15 02:35:04;;;;;;;88.97;34.50;;;;;;;-141.97;95.63;47826.63;4952129;29;20428;-79
2022/12/15 02:37:36;;;;;;;100.17;41.73;;;;;;;-141.97;94.67;47803.56;4952286;29;20474;-79
2022/12/15 02:40:04;;;;;;;94.03;39.50;;;;;;;-141.97;93.98;47840.06;4952388;29;20408;-79
2022/12/15 02:42:31;;;;;;;92.67;35.47;;;;;;;-141.97;94.16;47845.84;4953423;29;20468;-79
2022/12/15 02:45:04;;;;;;;87.13;36.77;;;;;;;-141.97;93.65;47853.53;4953951;29;20507;-79
2022/12/15 02:47:37;;;;;;;97.10;41.37;;;;;;;-141.97;93.79;47809.31;4951881;29;20420;-79
2022/12/15 02:50:22;;;;;;;100.30;41.37;;;;;;;-141.97;94.93;47822.78;4952018;29;20412;-80
2022/12/15 02:53:09;;;;;;;95.70;39.37;;;;;;;-141.97;95.55;47830.47;4951714;29;20492;-81
2022/12/15 02:55:56;;;;;;;70.13;27.47;;;;;;;-141.97;94.79;47782.41;5026919;28;20483;-82
2022/12/15 02:59:09;;;;;;;85.77;33.50;;;;;;;-141.97;94.79;47853.53;5014340;28;20421;-80
2022/12/15 03:01:45;;;;;;;102.40;41.40;;;;;;;-141.97;95.57;47845.84;4971048;28;20478;-79
2022/12/15 03:04:11;;;;;;;109.67;42.33;;;;;;;-141.97;95.63;47818.94;4970961;28;20433;-79
2022/12/15 03:06:37;;;;;;;109.13;43.23;;;;;;;-141.97;95.57;47811.25;4971231;28;20425;-80
2022/12/15 03:09:03;;;;;;;102.93;42.13;;;;;;;-141.97;95.65;47818.94;4971436;28;20415;-80
2022/12/15 03:11:28;;;;;;;92.20;36.03;;;;;;;-141.97;95.60;47765.09;4970776;28;20879;-80
2022/12/15 03:13:54;;;;;;;106.60;45.17;;;;;;;-141.97;95.63;47815.09;4970704;28;20660;-80
2022/12/15 03:16:20;;;;;;;105.93;43.83;;;;;;;-141.97;95.45;47826.63;4975290;28;20175;-79
2022/12/15 03:18:46;;;;;;;111.30;43.43;;;;;;;-141.97;95.74;47824.69;4990827;28;20267;-81
2022/12/15 03:21:11;;;;;;;103.63;45.00;;;;;;;-141.97;95.04;47817.00;4981876;28;20459;-80
2022/12/15 03:23:37;;;;;;;82.23;31.53;;;;;;;-141.97;95.48;47834.31;4978158;28;20571;-80
2022/12/15 03:26:03;;;;;;;98.50;39.83;;;;;;;-141.97;95.22;47809.31;4973827;28;20212;-80
2022/12/15 03:28:28;;;;;;;100.83;41.13;;;;;;;-141.97;94.50;47843.91;4971600;28;20170;-80
2022/12/15 03:30:55;;;;;;;86.83;33.43;;;;;;;-141.97;93.93;47828.53;4972851;28;20160;-80
2022/12/15 03:33:21;;;;;;;89.63;32.63;;;;;;;-141.97;94.29;47768.94;5011421;28;20184;-81
2022/12/15 03:35:46;;;;;;;91.50;37.73;;;;;;;-141.97;93.51;47782.41;5025535;28;20481;-81
2022/12/15 03:38:12;;;;;;;79.90;33.90;;;;;;;-141.97;92.80;47801.63;5033084;28;20230;-81
2022/12/15 03:40:37;;;;;;;77.60;31.40;;;;;;;-141.97;93.16;47828.53;5032524;28;20210;-81
2022/12/15 03:43:02;;;;;;;78.87;32.07;;;;;;;-141.97;93.13;47843.91;5030255;28;20173;-80
2022/12/15 03:45:28;;;;;;;87.27;33.83;;;;;;;-141.97;92.61;47876.59;5029010;28;20182;-80
2022/12/15 03:47:55;;;;;;;67.63;29.57;;;;;;;-141.97;92.27;47828.53;5023496;28;20158;-80
2022/12/15 03:50:25;;;;;;;79.63;32.47;;;;;;;-141.97;92.48;47853.53;5021663;28;20166;-81
2022/12/15 03:52:58;;;;;;;76.73;31.77;;;;;;;-141.97;93.09;47793.94;5018976;28;20771;-80
2022/12/15 03:55:24;;;;;;;83.33;33.80;;;;;;;-141.97;93.76;47807.41;5018546;28;20893;-81
2022/12/15 03:57:50;;;;;;;80.10;34.17;;;;;;;-141.97;93.44;47818.94;5018812;28;20413;-81
2022/12/15 04:00:17;;;;;;;75.60;31.17;;;;;;;-141.97;93.63;47795.88;5018528;28;20225;-80
2022/12/15 04:02:44;;;;;;;84.73;35.03;;;;;;;-141.97;93.96;47795.88;5019262;28;20440;-81
2022/12/15 04:05:15;;;;;;;83.47;35.10;;;;;;;-141.97;93.53;47830.47;5018489;28;20905;-80
2022/12/15 04:07:41;;;;;;;89.90;35.37;;;;;;;-141.97;93.20;47822.78;5018666;28;20409;-80
2022/12/15 04:10:07;;;;;;;84.43;35.77;;;;;;;-141.97;93.04;47799.72;5018419;28;20563;-80
2022/12/15 04:12:32;;;;;;;73.50;29.97;;;;;;;-141.97;93.41;47843.91;5018240;28;20993;-81
2022/12/15 04:14:57;;;;;;;93.40;37.43;;;;;;;-141.97;92.93;47813.16;5018323;28;20184;-80
2022/12/15 04:17:23;;;;;;;78.83;32.30;;;;;;;-141.97;92.54;47836.22;5018160;28;20166;-80
2022/12/15 04:22:32;;;;;;;94.77;36.53;;;;;;;-141.97;92.96;47828.53;5018105;28;20204;-80
2022/12/15 05:33:21;;;;;;;124.23;48.17;;;;;;;-141.97;95.36;47842.00;5014234;28;20412;-80
2022/12/15 05:35:47;;;;;;;145.63;54.70;;;;;;;-141.97;95.31;47826.63;5012578;28;20433;-80
2022/12/15 05:38:13;;;;;;;137.33;53.17;;;;;;;-141.97;95.06;47832.38;5014161;28;20194;-80
2022/12/15 05:40:38;;;;;;;126.27;49.10;;;;;;;-141.97;95.35;47818.94;5013691;28;20170;-81
2022/12/15 05:43:03;;;;;;;129.57;53.30;;;;;;;-141.97;95.16;47784.34;5012090;28;20213;-80
2022/12/15 05:45:29;;;;;;;107.10;43.37;;;;;;;-141.97;95.29;47830.47;5013497;28;20647;-80
2022/12/15 05:47:54;;;;;;;119.63;45.10;;;;;;;-141.97;96.06;47843.91;5028748;28;20171;-80
2022/12/15 05:50:21;;;;;;;127.10;48.53;;;;;;;-141.97;96.22;47872.75;5013947;28;20224;-80
2022/12/15 05:52:49;;;;;;;115.57;46.43;;;;;;;-141.97;96.10;47851.59;5013720;28;20160;-81
2022/12/15 05:55:18;;;;;;;105.10;40.77;;;;;;;-141.97;95.63;47818.94;5013276;28;20398;-80
2022/12/15 05:57:49;;;;;;;95.23;39.73;;;;;;;-141.97;95.63;47830.47;5013346;28;20518;-80
2022/12/15 06:00:14;;;;;;;99.50;40.93;;;;;;;-141.97;95.45;47818.94;5013356;28;20804;-81
2022/12/15 06:02:40;;;;;;;95.10;39.83;;;;;;;-141.97;95.24;47826.63;5013318;28;20544;-80
2022/12/15 06:05:06;;;;;;;168.37;64.70;;;;;;;-141.97;95.78;47859.28;5012496;28;20241;-80
2022/12/15 06:07:32;;;;;;;154.80;60.20;;;;;;;-141.97;95.85;47805.47;5012661;28;20211;-80
2022/12/15 06:09:58;;;;;;;106.07;44.23;;;;;;;-141.97;96.06;47832.38;5013991;28;20489;-79
2022/12/15 06:12:23;;;;;;;97.80;40.43;;;;;;;-141.97;95.75;47790.09;5013219;28;20868;-79
2022/12/15 06:14:48;;;;;;;87.90;35.87;;;;;;;-141.97;94.52;47801.63;5013564;28;20177;-80
2022/12/15 06:17:14;;;;;;;87.27;34.50;;;;;;;-141.97;94.84;47868.91;5013682;28;20170;-80
2022/12/15 06:19:39;;;;;;;95.33;37.67;;;;;;;-141.97;95.08;47830.47;5013667;28;20234;-81
2022/12/15 06:22:04;;;;;;;109.20;43.00;;;;;;;-141.97;94.72;47797.78;5013556;28;20270;-80
2022/12/15 06:24:30;;;;;;;99.87;36.60;;;;;;;-141.97;94.09;47788.19;5013741;28;20206;-80
2022/12/15 06:26:55;;;;;;;75.40;29.70;;;;;;;-141.97;93.95;47822.78;5016258;28;20254;-79
2022/12/15 06:29:21;;;;;;;84.57;35.63;;;;;;;-141.97;93.85;47813.16;5013341;28;20182;-79
2022/12/15 06:31:46;;;;;;;81.40;34.00;;;;;;;-141.97;93.32;47826.63;5013137;28;20642;-80
2022/12/15 06:34:14;;;;;;;108.07;47.73;;;;;;;-141.97;93.11;47815.09;5013595;28;20159;-80
2022/12/15 06:36:40;;;;;;;86.50;37.80;;;;;;;-141.97;93.14;47803.56;5013796;28;20233;-80
2022/12/15 06:39:10;;;;;;;87.27;37.23;;;;;;;-141.97;92.54;47842.00;5012465;28;20494;-80
2022/12/15 06:41:35;;;;;;;88.80;37.20;;;;;;;-141.97;92.62;47843.91;5013288;28;20453;-80
2022/12/15 06:44:01;;;;;;;100.63;42.57;;;;;;;-141.97;92.34;47838.16;5012483;28;20417;-80
2022/12/15 06:46:30;;;;;;;75.20;30.17;;;;;;;-141.97;91.83;47830.47;5012208;28;20198;-81
2022/12/15 06:48:56;;;;;;;81.70;35.20;;;;;;;-141.97;92.30;47815.09;5009277;28;20229;-80
2022/12/15 06:51:22;;;;;;;84.17;36.03;;;;;;;-141.97;91.58;47817.00;5013168;28;20464;-82
2022/12/15 06:53:47;;;;;;;86.90;36.03;;;;;;;-141.97;90.36;47818.94;5030388;28;20504;-80
2022/12/15 06:56:25;;;;;;;59.73;25.63;;;;;;;-141.97;90.57;47809.31;5019489;28;20209;-80
2022/12/15 06:58:52;;;;;;;76.73;31.90;;;;;;;-141.97;91.52;47834.31;5011288;28;20563;-80
2022/12/15 07:01:19;;;;;;;81.60;34.27;;;;;;;-141.97;91.29;47803.56;5018568;28;20861;-80
2022/12/15 07:03:45;;;;;;;82.27;34.77;;;;;;;-141.97;90.55;47840.06;5012265;28;20523;-80
2022/12/15 07:06:12;;;;;;;77.43;33.23;;;;;;;-141.97;90.45;47826.63;5029570;28;20527;-81
2022/12/15 07:08:38;;;;;;;82.80;32.57;;;;;;;-141.97;90.05;47811.25;5031631;28;20640;-81
2022/12/15 07:11:06;;;;;;;82.77;35.47;;;;;;;-141.97;89.83;47803.56;5026711;28;20526;-81
2022/12/15 07:13:31;;;;;;;82.10;35.70;;;;;;;-141.97;90.09;47818.94;5020323;28;20716;-82
2022/12/15 07:16:01;;;;;;;71.97;30.63;;;;;;;-141.97;89.91;47842.00;5020386;28;20492;-80
2022/12/15 07:18:28;;;;;;;64.60;27.33;;;;;;;-141.97;90.13;47801.63;5011437;28;20252;-81
2022/12/15 07:20:53;;;;;;;71.43;32.53;;;;;;;-141.97;89.81;47818.94;5010836;28;20489;-81
2022/12/15 07:23:19;;;;;;;89.50;37.33;;;;;;;-141.97;88.40;47828.53;5012935;28;21038;-80
2022/12/15 07:25:44;;;;;;;64.13;29.30;;;;;;;-141.97;87.07;47834.31;5018660;28;20183;-80
2022/12/15 07:28:10;;;;;;;72.70;33.27;;;;;;;-141.97;85.34;47861.22;5028956;28;20190;-81
2022/12/15 07:30:36;;;;;;;75.33;31.53;;;;;;;-141.97;83.94;47838.16;5033395;28;20198;-81
2022/12/15 07:33:02;;;;;;;79.57;33.93;;;;;;;-141.97;82.64;47838.16;5024528;28;20556;-81
2022/12/15 07:35:28;;;;;;;67.27;28.63;;;;;;;-141.97;82.26;47828.53;5017130;28;20193;-81
2022/12/15 07:37:54;;;;;;;64.10;29.53;;;;;;;-141.97;82.02;47832.38;5011924;28;20461;-81
2022/12/15 07:40:19;;;;;;;73.07;32.23;;;;;;;-141.97;80.91;47807.41;5010456;28;20197;-81
2022/12/15 07:42:44;;;;;;;92.20;39.37;;;;;;;-141.97;79.32;47834.31;5009605;28;20206;-81
2022/12/15 07:45:10;;;;;;;68.73;28.93;;;;;;;-141.97;79.22;47842.00;5036025;28;20227;-80
2022/12/15 07:47:36;;;;;;;58.47;25.43;;;;;;;-141.97;79.99;47803.56;5049322;28;20714;-80
2022/12/15 07:50:03;;;;;;;66.07;30.63;;;;;;;-141.97;78.58;47832.38;5039534;28;20233;-81
2022/12/15 07:52:29;;;;;;;49.73;22.03;;;;;;;-141.97;79.44;47822.78;5032790;28;20190;-81
2022/12/15 07:54:55;;;;;;;57.90;26.43;;;;;;;-141.97;80.32;47849.69;5029636;28;20436;-81
2022/12/15 07:57:21;;;;;;;66.00;28.13;;;;;;;-141.97;78.59;47813.16;5029077;28;20822;-81
2022/12/15 07:59:46;;;;;;;60.17;25.93;;;;;;;-141.97;77.26;47803.56;5029934;28;20194;-82
2022/12/15 08:02:12;;;;;;;53.47;24.90;;;;;;;-141.97;76.79;47838.16;5029388;28;21071;-82
2022/12/15 08:04:39;;;;;;;72.93;32.73;;;;;;;-141.97;76.19;47811.25;5029454;28;20276;-81
2022/12/15 08:07:05;;;;;;;62.20;27.27;;;;;;;-141.97;75.09;47845.84;5029949;28;20543;-82
2022/12/15 08:09:30;;;;;;;75.97;31.60;;;;;;;-141.97;76.03;47795.88;5030181;28;20178;-81
2022/12/15 08:11:56;;;;;;;86.30;34.83;;;;;;;-141.97;78.01;47822.78;5014124;28;20572;-81
2022/12/15 08:14:22;;;;;;;122.47;46.20;;;;;;;-141.97;77.56;47836.22;5010112;28;20182;-81
2022/12/15 08:16:47;;;;;;;79.27;32.73;;;;;;;-141.97;78.21;47818.94;5010140;28;20254;-81
2022/12/15 08:19:14;;;;;;;83.93;35.97;;;;;;;-141.97;77.75;47795.88;5009611;28;20186;-81
2022/12/15 08:21:41;;;;;;;77.57;32.13;;;;;;;-141.97;76.88;47820.84;5009463;28;20245;-81
2022/12/15 08:24:07;;;;;;;62.43;29.30;;;;;;;-141.97;76.14;47842.00;5008184;28;20182;-82
2022/12/15 08:26:33;;;;;;;157.77;62.30;;;;;;;-141.97;76.83;47915.03;5009975;28;20194;-81
2022/12/15 08:29:05;;;;;;;78.20;37.93;;;;;;;-141.97;75.38;47809.31;5028690;28;20543;-82
2022/12/15 08:31:32;;;;;;;55.97;26.40;;;;;;;-141.97;75.69;47826.63;5024316;28;20182;-81
2022/12/15 08:34:01;;;;;;;45.07;20.50;;;;;;;-141.97;76.96;47784.34;5012376;28;20855;-80
2022/12/15 08:36:27;;;;;;;53.90;25.13;;;;;;;-141.97;74.75;47857.38;5019375;28;20310;-81
2022/12/15 08:38:56;;;;;;;66.70;31.67;;;;;;;-141.97;74.07;47805.47;5032031;28;20194;-81
2022/12/15 08:41:28;;;;;;;47.70;21.90;;;;;;;-141.97;74.83;47815.09;5031343;28;20726;-81
2022/12/15 08:43:55;;;;;;;50.43;24.73;;;;;;;-141.97;73.32;47826.63;5029500;28;20269;-81
2022/12/15 08:46:24;;;;;;;53.07;24.40;;;;;;;-141.97;72.56;47805.47;5010837;28;20185;-81
2022/12/15 08:48:51;;;;;;;74.53;31.80;;;;;;;-141.97;71.70;47767.03;5011699;28;20679;-81
2022/12/15 08:51:19;;;;;;;75.90;33.53;;;;;;;-141.97;70.68;47784.34;5002463;28;20241;-82
2022/12/15 08:53:46;;;;;;;38.80;17.90;;;;;;;-141.97;71.19;47851.59;5011825;28;20771;-81
2022/12/15 08:56:18;;;;;;;44.07;23.43;;;;;;;-141.97;70.97;47788.19;5011667;28;20205;-81
2022/12/15 08:58:45;;;;;;;54.97;30.33;;;;;;;-141.97;71.24;47866.97;5015149;28;20248;-82
2022/12/15 09:01:16;;;;;;;54.20;26.47;;;;;;;-141.97;73.59;47830.47;5029089;28;20214;-80
2022/12/15 09:03:41;;;;;;;70.27;32.80;;;;;;;-141.97;71.44;47843.91;5028594;28;20186;-81
2022/12/15 09:06:12;;;;;;;29.40;14.70;;;;;;;-141.97;69.46;47824.69;5012583;28;20204;-81
2022/12/15 09:08:37;;;;;;;89.40;36.63;;;;;;;-141.97;68.76;47792.03;5029476;28;20217;-81
2022/12/15 09:11:04;;;;;;;56.73;26.53;;;;;;;-141.97;68.58;47811.25;5028589;28;20196;-81
2022/12/15 09:13:30;;;;;;;56.37;27.77;;;;;;;-141.97;68.06;47795.88;5029076;28;20185;-82
2022/12/15 09:16:07;;;;;;;66.00;28.40;;;;;;;-141.97;66.97;47947.72;5028939;28;20273;-80
2022/12/15 09:18:33;;;;;;;70.83;34.43;;;;;;;-141.97;66.34;47803.56;5028423;28;20189;-80
2022/12/15 09:21:04;;;;;;;39.67;20.77;;;;;;;-141.97;67.35;47826.63;5028757;28;20217;-82
2022/12/15 09:23:29;;;;;;;50.10;25.83;;;;;;;-141.97;69.54;47817.00;5029151;28;20259;-82
2022/12/15 09:26:02;;;;;;;41.30;21.37;;;;;;;-141.97;70.22;47805.47;5011289;28;20224;-80
2022/12/15 09:28:28;;;;;;;30.50;15.57;;;;;;;-141.97;70.27;47830.47;5013186;28;20284;-80
2022/12/15 09:31:00;;;;;;;58.10;26.27;;;;;;;-141.97;68.31;47845.84;5030382;28;20535;-82
2022/12/15 09:33:25;;;;;;;59.73;28.73;;;;;;;-141.97;68.46;47801.63;5010473;28;20191;-81
2022/12/15 09:35:51;;;;;;;57.43;28.07;;;;;;;-141.97;68.62;47849.69;5010903;28;20193;-81
2022/12/15 09:38:16;;;;;;;58.33;29.87;;;;;;;-141.97;66.86;47792.03;5010871;28;20174;-81
2022/12/15 09:40:45;;;;;;;38.00;19.27;;;;;;;-141.97;67.56;47742.03;5010095;28;20670;-82
2022/12/15 09:43:17;;;;;;;33.00;17.77;;;;;;;-141.97;67.81;47788.19;5010970;28;20750;-81
2022/12/15 09:45:49;;;;;;;87.53;38.80;;;;;;;-141.97;66.31;47832.38;5046173;28;20197;-81
2022/12/15 09:48:21;;;;;;;36.03;17.93;;;;;;;-141.97;65.81;47826.63;5030277;28;20182;-81
2022/12/15 09:50:49;;;;;;;59.60;26.83;;;;;;;-141.97;65.29;47817.00;5021065;28;20229;-81
2022/12/15 09:53:17;;;;;;;73.03;31.10;;;;;;;-141.97;66.23;47799.72;5029899;28;20182;-81
2022/12/15 09:55:47;;;;;;;39.03;18.83;;;;;;;-141.97;65.02;47780.47;5029745;28;20192;-81
2022/12/15 09:58:35;;;;;;;43.33;25.20;;;;;;;-141.97;65.58;47786.25;5030444;28;20182;-82
2022/12/15 10:01:12;;;;;;;29.97;15.43;;;;;;;-141.97;65.61;47807.41;5030224;28;20295;-80
2022/12/15 10:03:43;;;;;;;36.70;18.90;;;;;;;-141.97;65.23;47818.94;5030795;28;20208;-82
2022/12/15 10:06:14;;;;;;;41.33;19.07;;;;;;;-141.97;65.67;47811.25;5030615;28;20227;-80
2022/12/15 10:08:45;;;;;;;25.40;13.33;;;;;;;-141.97;65.12;47855.44;5029842;28;20186;-80
2022/12/15 10:11:22;;;;;;;29.17;16.43;;;;;;;-141.97;67.15;47807.41;5030283;28;20878;-80
2022/12/15 10:14:12;;;;;;;35.13;18.23;;;;;;;-141.97;66.30;47834.31;5030331;28;20193;-80
2022/12/15 10:16:37;;;;;;;36.70;19.67;;;;;;;-141.97;65.24;47795.88;5029855;28;20178;-81
2022/12/15 10:19:15;;;;;;;29.53;15.47;;;;;;;-141.97;64.17;47805.47;5012799;28;20258;-81
2022/12/15 10:21:41;;;;;;;42.73;23.17;;;;;;;-141.97;63.32;47803.56;5029788;28;20205;-82
2022/12/15 10:24:19;;;;;;;41.13;22.87;;;;;;;-141.97;64.78;47790.09;5031043;28;20252;-80
2022/12/15 10:26:57;;;;;;;42.27;21.50;;;;;;;-141.97;64.43;47790.09;5030955;28;20279;-80
2022/12/15 10:29:41;;;;;;;34.87;18.57;;;;;;;-141.97;64.43;47776.63;5031274;28;20189;-80
2022/12/15 10:32:17;;;;;;;30.70;15.60;;;;;;;-141.97;63.86;47830.47;5031192;28;20638;-80
2022/12/15 10:34:43;;;;;;;29.50;14.70;;;;;;;-141.97;63.09;47763.19;5031404;28;20181;-81
2022/12/15 10:37:16;;;;;;;32.03;16.17;;;;;;;-141.97;63.08;47807.41;5030458;28;21011;-81
2022/12/15 10:39:43;;;;;;;31.17;16.73;;;;;;;-141.97;63.63;47799.72;5030621;28;20209;-81
2022/12/15 10:42:11;;;;;;;36.40;19.27;;;;;;;-141.97;62.81;47790.09;5030183;28;20314;-81
2022/12/15 10:44:40;;;;;;;30.60;16.47;;;;;;;-141.97;62.71;47797.78;5022914;28;20186;-80
2022/12/15 10:47:26;;;;;;;60.80;26.30;;;;;;;-141.97;62.69;47828.53;5011152;28;20189;-81
2022/12/15 10:49:53;;;;;;;131.67;48.47;;;;;;;-141.97;63.13;47795.88;5004101;28;20634;-80
2022/12/15 10:52:24;;;;;;;85.40;30.13;;;;;;;-141.97;62.24;47822.78;5030106;28;20185;-80
2022/12/15 10:54:51;;;;;;;43.17;21.83;;;;;;;-141.97;63.45;47788.19;5030532;28;20320;-81
2022/12/15 10:57:30;;;;;;;61.40;31.33;;;;;;;-141.97;63.61;47807.41;5029814;28;20196;-80
2022/12/15 11:00:26;;;;;;;44.90;22.33;;;;;;;-141.97;63.21;47790.09;5031952;28;20572;-80
2022/12/15 11:02:52;;;;;;;34.30;19.07;;;;;;;-141.97;64.71;47782.41;4953993;29;20301;-81
2022/12/15 11:05:17;;;;;;;30.83;16.33;;;;;;;-141.97;63.39;47880.44;4966671;29;20276;-80
2022/12/15 11:07:54;;;;;;;42.57;22.37;;;;;;;-141.97;63.82;47792.03;4973332;29;20197;-80
2022/12/15 11:10:22;;;;;;;38.30;19.67;;;;;;;-141.97;63.20;47788.19;4959651;29;20198;-80
2022/12/15 11:13:15;;;;;;;54.87;30.77;;;;;;;-141.97;62.58;47815.09;4957135;29;20200;-80
2022/12/15 11:15:55;;;;;;;41.10;22.27;;;;;;;-141.97;62.24;47788.19;4876946;29;20196;-80
2022/12/15 11:18:52;;;;;;;44.37;22.57;;;;;;;-141.97;61.49;47818.94;4874302;29;20263;-80
2022/12/15 11:21:26;;;;;;;103.10;27.87;;;;;;;-141.97;62.20;47765.09;4874105;29;20219;-80
2022/12/15 11:24:11;;;;;;;42.57;21.63;;;;;;;-141.97;63.07;47784.34;4875457;29;20647;-80
2022/12/15 11:26:45;;;;;;;43.50;21.90;;;;;;;-141.97;62.87;47797.78;4889261;29;20196;-80
2022/12/15 11:29:37;;;;;;;41.27;22.60;;;;;;;-141.97;62.35;47795.88;4893561;29;20261;-81
2022/12/15 11:32:04;;;;;;;37.23;18.87;;;;;;;-141.97;61.91;47795.88;4880719;29;20297;-81
2022/12/15 11:34:36;;;;;;;31.17;16.57;;;;;;;-141.97;61.81;47778.56;4875316;29;20766;-81
2022/12/15 11:37:32;;;;;;;31.40;16.80;;;;;;;-141.97;61.29;47784.34;4873814;29;20239;-80
2022/12/15 11:40:16;;;;;;;32.87;17.30;;;;;;;-141.97;61.00;47797.78;4897701;29;20229;-81
2022/12/15 11:43:00;;;;;;;33.63;18.20;;;;;;;-141.97;61.33;47757.41;4922560;29;20285;-80
2022/12/15 11:46:07;;;;;;;31.87;17.70;;;;;;;-141.97;61.91;47765.09;4947352;29;20977;-81
2022/12/15 11:48:38;;;;;;;51.87;30.27;;;;;;;-141.97;61.30;47815.09;4949943;29;20853;-81
2022/12/15 11:51:13;;;;;;;42.77;24.53;;;;;;;-141.97;61.36;47788.19;4924577;29;20712;-81
2022/12/15 11:53:57;;;;;;;27.00;14.37;;;;;;;-141.97;61.10;47797.78;5009646;28;20696;-80
2022/12/15 11:56:40;;;;;;;43.40;22.73;;;;;;;-141.97;61.94;47776.63;5010155;28;20277;-80
2022/12/15 11:59:24;;;;;;;28.77;14.23;;;;;;;-141.97;61.74;47803.56;5010414;28;20258;-80
2022/12/15 12:01:59;;;;;;;30.70;14.63;;;;;;;-141.97;61.54;47776.63;5009641;28;20268;-81
2022/12/15 12:04:29;;;;;;;27.27;14.57;;;;;;;-141.97;61.18;47728.59;5011333;28;20188;-80
2022/12/15 12:07:28;;;;;;;33.73;16.27;;;;;;;-141.97;60.80;47776.63;5014255;28;20257;-81
2022/12/15 12:09:53;;;;;;;32.97;17.10;;;;;;;-141.97;60.00;47799.72;5013861;28;20182;-81
2022/12/15 12:12:51;;;;;;;29.97;14.20;;;;;;;-141.97;59.64;47813.16;5012637;28;20205;-80
2022/12/15 12:15:39;;;;;;;25.53;13.77;;;;;;;-141.97;59.10;47780.47;5009265;28;20686;-80
2022/12/15 12:18:18;;;;;;;24.43;12.37;;;;;;;-141.97;58.70;47782.41;5010232;28;20672;-80
2022/12/15 12:21:08;;;;;;;24.77;14.37;;;;;;;-141.97;59.59;47801.63;5010831;28;20199;-80
2022/12/15 12:23:41;;;;;;;28.33;15.00;;;;;;;-141.97;59.45;47755.50;4993592;28;20278;-81
2022/12/15 12:26:20;;;;;;;28.53;15.30;;;;;;;-141.97;59.03;47742.03;4991823;28;20198;-80
2022/12/15 12:29:06;;;;;;;27.13;14.23;;;;;;;-141.97;58.19;47797.78;4991666;28;20202;-82
2022/12/15 12:31:50;;;;;;;28.40;14.57;;;;;;;-141.97;58.27;47742.03;4991411;28;20187;-80
2022/12/15 12:34:49;;;;;;;25.77;14.20;;;;;;;-141.97;58.01;47786.25;4991884;28;20183;-80
2022/12/15 12:37:30;;;;;;;21.23;13.10;;;;;;;-141.97;57.46;47776.63;4992390;28;20454;-81
2022/12/15 12:40:04;;;;;;;27.90;13.47;;;;;;;-141.97;57.01;47743.97;4992501;28;20201;-82
2022/12/15 12:42:39;;;;;;;22.07;12.80;;;;;;;-141.97;55.75;47784.34;4992972;28;20242;-82
2022/12/15 12:45:05;;;;;;;22.33;13.00;;;;;;;-141.97;56.17;47776.63;4992130;28;20286;-82
2022/12/15 12:47:37;;;;;;;27.83;13.77;;;;;;;-141.97;56.18;47738.19;4993533;28;20758;-81
2022/12/15 12:50:12;;;;;;;30.20;17.20;;;;;;;-141.97;56.69;47747.81;4993308;28;20346;-82
2022/12/15 12:52:48;;;;;;;28.30;15.73;;;;;;;-141.97;56.83;47742.03;4997192;28;20259;-81
2022/12/15 12:55:41;;;;;;;25.37;15.47;;;;;;;-141.97;57.04;47776.63;5013529;28;20178;-83
2022/12/15 12:58:33;;;;;;;28.50;17.30;;;;;;;-141.97;56.83;47788.19;4991203;28;20231;-83
2022/12/15 13:01:04;;;;;;;35.93;20.27;;;;;;;-141.97;56.23;47784.34;4994139;28;20346;-82
2022/12/15 13:03:29;;;;;;;48.80;26.87;;;;;;;-141.97;56.50;47809.31;4992060;28;20203;-83
2022/12/15 13:05:55;;;;;;;35.10;17.30;;;;;;;-141.97;56.19;47765.09;4991276;28;20274;-81
2022/12/15 13:08:27;;;;;;;27.10;15.37;;;;;;;-141.97;56.52;47738.19;4991078;28;20297;-81
2022/12/15 13:10:55;;;;;;;28.53;14.60;;;;;;;-141.97;56.45;47765.09;4991626;28;20211;-80
2022/12/15 13:13:29;;;;;;;30.77;14.70;;;;;;;-141.97;56.18;47768.94;4991058;28;20180;-80
2022/12/15 13:16:05;;;;;;;33.90;16.00;;;;;;;-141.97;56.50;47768.94;4989904;28;20285;-80
2022/12/15 13:19:03;;;;;;;37.53;18.90;;;;;;;-141.97;57.63;47761.25;4974340;28;20187;-80
2022/12/15 13:21:43;;;;;;;51.53;24.13;;;;;;;-141.97;58.53;47722.81;4990307;28;20226;-83
2022/12/15 13:24:36;;;;;;;55.23;26.53;;;;;;;-141.97;58.62;47797.78;4991080;28;20683;-80
2022/12/15 13:27:07;;;;;;;45.03;20.97;;;;;;;-141.97;59.00;47815.09;4991466;28;20245;-79
2022/12/15 13:29:35;;;;;;;52.00;23.83;;;;;;;-141.97;59.54;47782.41;4990840;28;20706;-80
2022/12/15 13:32:00;;;;;;;33.43;16.90;;;;;;;-141.97;60.29;47772.78;4990148;28;20214;-82
2022/12/15 13:34:28;;;;;;;33.37;16.73;;;;;;;-141.97;61.48;47793.94;5003708;28;20615;-82
2022/12/15 13:36:55;;;;;;;43.17;21.57;;;;;;;-141.97;62.34;47784.34;5014529;28;20653;-82
2022/12/15 13:39:21;;;;;;;31.50;16.77;;;;;;;-141.97;62.80;47776.63;5032190;28;20182;-81